Time;durP1;ratioP1;P1;durP2;ratioP2;P2;SDS_P1;SDS_P2;PMS_P1;PMS_P2;Temp;Humidity;BMP_temperature;BMP_pressure;BME280_temperature;BME280_humidity;BME280_pressure;Samples;Min_cycle;Max_cycle;Signal;HPM_P1;HPM_P2
2024/02/16 00:01:01;;;;;;;10.57;5.40;;;;;;;;;;5029171;28;20124;-65
2024/02/16 00:03:27;;;;;;;9.68;5.82;;;;;;;;;;5041270;28;20180;-65
2024/02/16 00:05:54;;;;;;;10.52;4.88;;;;;;;;;;5028959;28;20558;-65
2024/02/16 00:08:20;;;;;;;10.27;5.43;;;;;;;;;;5023916;28;20033;-65
2024/02/16 00:10:47;;;;;;;11.48;5.63;;;;;;;;;;5038387;28;20071;-65
2024/02/16 00:13:13;;;;;;;10.75;5.03;;;;;;;;;;5041164;28;20033;-65
2024/02/16 00:15:39;;;;;;;10.20;5.10;;;;;;;;;;5036833;28;20072;-65
2024/02/16 00:18:06;;;;;;;11.43;5.65;;;;;;;;;;5023142;28;20087;-65
2024/02/16 00:20:32;;;;;;;10.63;4.88;;;;;;;;;;5040006;28;20170;-65
2024/02/16 00:23:00;;;;;;;10.18;5.10;;;;;;;;;;5021012;28;20166;-66
2024/02/16 00:25:26;;;;;;;16.08;5.50;;;;;;;;;;5022698;28;20441;-65
2024/02/16 00:27:53;;;;;;;8.98;4.70;;;;;;;;;;5016777;28;20084;-65
2024/02/16 00:30:21;;;;;;;10.68;5.13;;;;;;;;;;5014910;28;20056;-65
2024/02/16 00:32:47;;;;;;;8.38;5.00;;;;;;;;;;4998978;28;20129;-65
2024/02/16 00:35:16;;;;;;;13.10;4.30;;;;;;;;;;5015715;28;20121;-65
2024/02/16 00:37:42;;;;;;;10.20;4.72;;;;;;;;;;5018186;28;20153;-65
2024/02/16 00:40:09;;;;;;;9.95;4.60;;;;;;;;;;5018245;28;20505;-65
2024/02/16 00:42:35;;;;;;;9.00;4.57;;;;;;;;;;5016624;28;20057;-65
2024/02/16 00:45:02;;;;;;;8.05;4.82;;;;;;;;;;5017755;28;20083;-65
2024/02/16 00:47:28;;;;;;;12.90;5.75;;;;;;;;;;5020156;28;20045;-65
2024/02/16 00:49:54;;;;;;;11.15;5.07;;;;;;;;;;5017300;28;20065;-65
2024/02/16 00:52:20;;;;;;;11.88;4.93;;;;;;;;;;5020937;28;20064;-65
2024/02/16 00:54:46;;;;;;;10.05;5.32;;;;;;;;;;5021389;28;20041;-65
2024/02/16 00:57:14;;;;;;;12.57;5.25;;;;;;;;;;5022237;28;20902;-65
2024/02/16 00:59:40;;;;;;;14.35;4.65;;;;;;;;;;5015843;28;20310;-65
2024/02/16 01:02:07;;;;;;;11.25;5.00;;;;;;;;;;5015441;28;20402;-65
2024/02/16 01:04:33;;;;;;;12.15;5.50;;;;;;;;;;5018833;28;20162;-65
2024/02/16 01:07:00;;;;;;;9.57;4.18;;;;;;;;;;5017553;28;20204;-65
2024/02/16 01:09:26;;;;;;;12.20;5.30;;;;;;;;;;5018589;28;20246;-65
2024/02/16 01:11:53;;;;;;;11.15;4.90;;;;;;;;;;5017811;28;20141;-65
2024/02/16 01:14:19;;;;;;;11.32;5.07;;;;;;;;;;5017262;28;20068;-65
2024/02/16 01:16:46;;;;;;;8.13;4.60;;;;;;;;;;5021443;28;20045;-65
2024/02/16 01:19:12;;;;;;;8.25;4.05;;;;;;;;;;5018770;28;20144;-65
2024/02/16 01:21:39;;;;;;;10.15;4.68;;;;;;;;;;5014034;28;20053;-65
2024/02/16 01:24:06;;;;;;;9.55;4.38;;;;;;;;;;5020631;28;20045;-65
2024/02/16 01:26:32;;;;;;;8.27;4.40;;;;;;;;;;5017600;28;20120;-66
2024/02/16 01:28:59;;;;;;;11.15;5.00;;;;;;;;;;5016163;28;20049;-65
2024/02/16 01:31:26;;;;;;;9.73;4.63;;;;;;;;;;5020489;28;20037;-65
2024/02/16 01:33:52;;;;;;;10.13;4.22;;;;;;;;;;5016788;28;20084;-65
2024/02/16 01:36:19;;;;;;;10.30;4.18;;;;;;;;;;5001921;28;20497;-65
2024/02/16 01:38:45;;;;;;;7.68;4.15;;;;;;;;;;5018084;28;20543;-65
2024/02/16 01:41:14;;;;;;;9.55;4.05;;;;;;;;;;5016728;28;20101;-65
2024/02/16 01:43:40;;;;;;;8.00;4.22;;;;;;;;;;5015289;28;20061;-65
2024/02/16 01:46:07;;;;;;;10.63;4.32;;;;;;;;;;5019342;28;20393;-65
2024/02/16 01:48:33;;;;;;;9.10;4.32;;;;;;;;;;5015917;28;20517;-65
2024/02/16 01:51:01;;;;;;;11.48;4.25;;;;;;;;;;5015715;28;20053;-65
2024/02/16 01:53:28;;;;;;;11.18;4.30;;;;;;;;;;5013987;28;20772;-65
2024/02/16 01:55:55;;;;;;;7.65;4.45;;;;;;;;;;5012418;28;20072;-65
2024/02/16 01:58:21;;;;;;;11.13;3.85;;;;;;;;;;5017671;28;20053;-65
2024/02/16 02:00:47;;;;;;;9.25;4.10;;;;;;;;;;5017381;28;20512;-65
2024/02/16 02:03:15;;;;;;;7.30;3.67;;;;;;;;;;5016991;28;20046;-65
2024/02/16 02:05:45;;;;;;;11.88;4.70;;;;;;;;;;5015243;28;20121;-65
2024/02/16 02:08:12;;;;;;;8.40;4.07;;;;;;;;;;5017962;28;20108;-65
2024/02/16 02:10:38;;;;;;;7.53;3.80;;;;;;;;;;5017503;28;20045;-65
2024/02/16 02:13:04;;;;;;;12.40;5.25;;;;;;;;;;5014699;28;20041;-65
2024/02/16 02:15:31;;;;;;;9.20;4.10;;;;;;;;;;5012520;28;20049;-65
2024/02/16 02:17:59;;;;;;;11.57;3.88;;;;;;;;;;5015258;28;20512;-65
2024/02/16 02:20:25;;;;;;;9.80;4.10;;;;;;;;;;5016493;28;20057;-65
2024/02/16 02:22:51;;;;;;;12.23;4.10;;;;;;;;;;5015900;28;20041;-65
2024/02/16 02:25:18;;;;;;;10.98;4.78;;;;;;;;;;5020387;28;20054;-65
2024/02/16 02:27:45;;;;;;;8.52;4.13;;;;;;;;;;5022390;28;20547;-65
2024/02/16 02:30:11;;;;;;;10.70;3.97;;;;;;;;;;5017183;28;20139;-65
2024/02/16 02:32:38;;;;;;;10.73;4.05;;;;;;;;;;5019464;28;20055;-65
2024/02/16 02:35:04;;;;;;;7.65;3.38;;;;;;;;;;5042505;28;20464;-65
2024/02/16 02:37:30;;;;;;;11.40;4.47;;;;;;;;;;5022077;28;20049;-65
2024/02/16 02:39:57;;;;;;;6.85;4.05;;;;;;;;;;5023807;28;20053;-65
2024/02/16 02:42:23;;;;;;;9.60;4.32;;;;;;;;;;5043086;28;20111;-65
2024/02/16 02:44:50;;;;;;;10.63;4.00;;;;;;;;;;5028814;28;20052;-65
2024/02/16 02:47:17;;;;;;;9.82;3.55;;;;;;;;;;5026290;28;20045;-65
2024/02/16 02:49:44;;;;;;;9.02;3.65;;;;;;;;;;5025300;28;20052;-65
2024/02/16 02:52:10;;;;;;;9.70;3.75;;;;;;;;;;5022408;28;20053;-65
2024/02/16 02:54:36;;;;;;;10.80;3.78;;;;;;;;;;5025513;28;20060;-65
2024/02/16 02:57:04;;;;;;;11.40;3.85;;;;;;;;;;5034724;28;20043;-65
2024/02/16 02:59:30;;;;;;;9.05;4.13;;;;;;;;;;5023704;28;20049;-65
2024/02/16 03:01:56;;;;;;;7.53;3.67;;;;;;;;;;5023949;28;20072;-66
2024/02/16 03:04:22;;;;;;;9.77;3.47;;;;;;;;;;5022994;28;20042;-65
2024/02/16 03:06:49;;;;;;;8.90;3.80;;;;;;;;;;5020131;28;20052;-65
2024/02/16 03:09:15;;;;;;;10.13;4.30;;;;;;;;;;5038641;28;20467;-65
2024/02/16 03:11:41;;;;;;;10.65;3.92;;;;;;;;;;5039981;28;20049;-65
2024/02/16 03:14:07;;;;;;;7.10;3.50;;;;;;;;;;5038356;28;20091;-65
2024/02/16 03:16:34;;;;;;;8.23;3.20;;;;;;;;;;5040013;28;20102;-65
2024/02/16 03:19:00;;;;;;;8.30;3.83;;;;;;;;;;5023928;28;20388;-65
2024/02/16 03:21:27;;;;;;;7.50;3.88;;;;;;;;;;5043370;28;20036;-65
2024/02/16 03:23:53;;;;;;;8.10;3.90;;;;;;;;;;5024775;28;20040;-65
2024/02/16 03:26:20;;;;;;;10.60;3.53;;;;;;;;;;5039065;28;20076;-65
2024/02/16 03:28:47;;;;;;;11.15;4.28;;;;;;;;;;5022095;28;20065;-65
2024/02/16 03:31:20;;;;;;;9.32;4.55;;;;;;;;;;5024534;28;20052;-65
2024/02/16 03:33:46;;;;;;;8.43;4.33;;;;;;;;;;5020601;28;20030;-65
2024/02/16 03:36:14;;;;;;;9.48;4.47;;;;;;;;;;5024844;28;20094;-65
2024/02/16 03:38:42;;;;;;;9.93;3.75;;;;;;;;;;5019469;28;20517;-65
2024/02/16 03:41:12;;;;;;;12.20;4.80;;;;;;;;;;5021805;28;20057;-65
2024/02/16 03:43:38;;;;;;;10.80;3.97;;;;;;;;;;5018036;28;20155;-65
2024/02/16 03:46:04;;;;;;;10.02;4.03;;;;;;;;;;5022498;28;20034;-65
2024/02/16 03:48:31;;;;;;;10.13;4.35;;;;;;;;;;5020971;28;20088;-65
2024/02/16 03:50:57;;;;;;;9.98;4.30;;;;;;;;;;5025799;28;20137;-65
2024/02/16 03:53:23;;;;;;;7.93;3.92;;;;;;;;;;5028042;28;20042;-65
2024/02/16 03:55:50;;;;;;;9.52;3.88;;;;;;;;;;5026231;28;20130;-65
2024/02/16 03:58:17;;;;;;;8.32;3.50;;;;;;;;;;5021847;28;20354;-65
2024/02/16 04:00:43;;;;;;;18.15;4.40;;;;;;;;;;5018132;28;20046;-65
2024/02/16 04:03:09;;;;;;;10.60;4.38;;;;;;;;;;5018228;28;20379;-65
2024/02/16 04:05:36;;;;;;;11.13;4.13;;;;;;;;;;5011454;28;20069;-65
2024/02/16 04:08:03;;;;;;;12.48;3.80;;;;;;;;;;5021363;28;20045;-65
2024/02/16 04:10:30;;;;;;;8.02;3.70;;;;;;;;;;5024754;28;20120;-65
2024/02/16 04:12:56;;;;;;;11.95;4.65;;;;;;;;;;5030182;28;20034;-65
2024/02/16 04:15:22;;;;;;;9.35;4.18;;;;;;;;;;5016213;28;20041;-65
2024/02/16 04:17:49;;;;;;;9.43;3.83;;;;;;;;;;5028730;28;20037;-65
2024/02/16 04:20:17;;;;;;;14.00;5.03;;;;;;;;;;5026640;28;20053;-65
2024/02/16 04:22:43;;;;;;;12.43;4.70;;;;;;;;;;5024166;28;20041;-65
2024/02/16 04:25:10;;;;;;;8.32;4.38;;;;;;;;;;5021324;28;20107;-65
2024/02/16 04:27:36;;;;;;;9.48;3.80;;;;;;;;;;5025321;28;20053;-65
2024/02/16 04:30:03;;;;;;;6.93;3.55;;;;;;;;;;5023082;28;20083;-65
2024/02/16 04:32:29;;;;;;;7.78;3.92;;;;;;;;;;5029051;28;20048;-65
2024/02/16 04:34:56;;;;;;;7.63;3.80;;;;;;;;;;5026858;28;20314;-65
2024/02/16 04:37:23;;;;;;;8.15;3.53;;;;;;;;;;5045498;28;20036;-65
2024/02/16 04:39:49;;;;;;;8.63;5.03;;;;;;;;;;5021861;28;20056;-65
2024/02/16 04:42:16;;;;;;;10.98;4.60;;;;;;;;;;5040235;28;20045;-65
2024/02/16 04:44:42;;;;;;;11.32;3.85;;;;;;;;;;5020624;28;20131;-65
2024/02/16 04:47:09;;;;;;;10.00;3.88;;;;;;;;;;5017421;28;20112;-65
2024/02/16 04:49:35;;;;;;;7.82;3.90;;;;;;;;;;5022075;28;20067;-65
2024/02/16 04:52:01;;;;;;;7.93;4.40;;;;;;;;;;5021909;28;20516;-65
2024/02/16 04:54:27;;;;;;;8.18;4.00;;;;;;;;;;5040590;28;20090;-65
2024/02/16 04:56:54;;;;;;;10.75;4.57;;;;;;;;;;5037334;28;20520;-65
2024/02/16 04:59:20;;;;;;;10.13;3.88;;;;;;;;;;5037022;28;20193;-65
2024/02/16 05:01:47;;;;;;;9.13;3.67;;;;;;;;;;5037501;28;20568;-65
2024/02/16 05:04:16;;;;;;;9.15;4.30;;;;;;;;;;5021143;28;20469;-65
2024/02/16 05:06:42;;;;;;;6.82;3.55;;;;;;;;;;5019295;28;20069;-65
2024/02/16 05:09:08;;;;;;;10.30;3.88;;;;;;;;;;5022328;28;20163;-65
2024/02/16 05:11:35;;;;;;;10.30;5.90;;;;;;;;;;5038778;28;20444;-65
2024/02/16 05:14:01;;;;;;;9.35;4.20;;;;;;;;;;5000812;28;20052;-65
2024/02/16 05:16:28;;;;;;;8.52;3.90;;;;;;;;;;5021449;28;20102;-65
2024/02/16 05:18:57;;;;;;;8.88;4.20;;;;;;;;;;5020479;28;20089;-65
2024/02/16 05:21:23;;;;;;;7.65;3.80;;;;;;;;;;5020064;28;20096;-65
2024/02/16 05:23:49;;;;;;;7.65;4.30;;;;;;;;;;5022478;28;20126;-65
2024/02/16 05:26:15;;;;;;;7.70;4.53;;;;;;;;;;5038196;28;20396;-65
2024/02/16 05:28:41;;;;;;;7.82;3.90;;;;;;;;;;5020015;28;20134;-65
2024/02/16 05:31:15;;;;;;;7.28;4.43;;;;;;;;;;5017319;28;20058;-65
2024/02/16 05:33:41;;;;;;;;;;;;;;;;;;5018268;28;20766;-65
2024/02/16 05:36:08;;;;;;;10.57;3.75;;;;;;;;;;5018953;28;20380;-65
2024/02/16 05:38:40;;;;;;;8.70;4.07;;;;;;;;;;5017850;28;20128;-65
2024/02/16 05:41:07;;;;;;;12.05;4.20;;;;;;;;;;5016867;28;20053;-65
2024/02/16 05:43:34;;;;;;;8.98;3.55;;;;;;;;;;5017115;28;20681;-65
2024/02/16 05:46:00;;;;;;;6.90;4.05;;;;;;;;;;5018461;28;20450;-65
2024/02/16 05:48:29;;;;;;;8.93;4.10;;;;;;;;;;5018380;28;20144;-66
2024/02/16 05:50:59;;;;;;;7.38;3.92;;;;;;;;;;5020343;28;20144;-65
2024/02/16 05:53:26;;;;;;;8.45;3.45;;;;;;;;;;5014308;28;20116;-65
2024/02/16 05:55:52;;;;;;;8.55;3.95;;;;;;;;;;5015961;28;20498;-65
2024/02/16 05:58:18;;;;;;;9.90;3.97;;;;;;;;;;5017876;28;20081;-65
2024/02/16 06:00:47;;;;;;;11.50;4.05;;;;;;;;;;5016163;28;20136;-65
2024/02/16 06:03:13;;;;;;;7.88;4.10;;;;;;;;;;5019628;28;20497;-65
2024/02/16 06:05:40;;;;;;;7.50;3.80;;;;;;;;;;5016863;28;20059;-65
2024/02/16 06:08:07;;;;;;;8.02;4.15;;;;;;;;;;5013703;28;20568;-65
2024/02/16 06:10:33;;;;;;;7.40;4.10;;;;;;;;;;5017766;28;20085;-65
2024/02/16 06:13:00;;;;;;;9.48;4.72;;;;;;;;;;5015678;28;20041;-65
2024/02/16 06:15:26;;;;;;;10.30;4.18;;;;;;;;;;5016700;28;20453;-65
2024/02/16 06:17:52;;;;;;;7.80;3.72;;;;;;;;;;5017529;28;20045;-65
2024/02/16 06:20:19;;;;;;;9.52;4.65;;;;;;;;;;5015941;28;20338;-65
2024/02/16 06:22:45;;;;;;;10.35;4.13;;;;;;;;;;5016695;28;20077;-65
2024/02/16 06:25:11;;;;;;;8.70;4.20;;;;;;;;;;5019040;28;20906;-65
2024/02/16 06:27:37;;;;;;;7.05;3.60;;;;;;;;;;5018723;28;20136;-65
2024/02/16 06:30:04;;;;;;;8.70;4.30;;;;;;;;;;5017177;28;20068;-65
2024/02/16 06:32:31;;;;;;;8.98;4.22;;;;;;;;;;5018006;28;20041;-66
2024/02/16 06:34:57;;;;;;;9.93;4.63;;;;;;;;;;5016693;28;20124;-65
2024/02/16 06:37:23;;;;;;;8.60;3.97;;;;;;;;;;5024532;28;20058;-65
2024/02/16 06:39:50;;;;;;;9.20;4.05;;;;;;;;;;5018785;28;20139;-65
2024/02/16 06:42:16;;;;;;;7.28;4.00;;;;;;;;;;5017450;28;20481;-65
2024/02/16 06:44:42;;;;;;;6.82;3.75;;;;;;;;;;5019902;28;20041;-65
2024/02/16 06:47:08;;;;;;;7.97;4.13;;;;;;;;;;5021469;28;20114;-65
2024/02/16 06:49:34;;;;;;;10.57;4.20;;;;;;;;;;5022304;28;20243;-67
2024/02/16 06:52:00;;;;;;;6.88;3.80;;;;;;;;;;5022600;28;20046;-65
2024/02/16 06:54:27;;;;;;;8.38;4.85;;;;;;;;;;5023619;28;20045;-65
2024/02/16 06:56:53;;;;;;;7.90;3.92;;;;;;;;;;5026906;28;20405;-65
2024/02/16 06:59:19;;;;;;;9.32;5.00;;;;;;;;;;5021406;28;20057;-65
2024/02/16 07:01:46;;;;;;;7.32;4.13;;;;;;;;;;5022811;28;20128;-65
2024/02/16 07:04:12;;;;;;;7.70;3.90;;;;;;;;;;5021299;28;20045;-66
2024/02/16 07:06:38;;;;;;;12.57;4.32;;;;;;;;;;5022217;28;20056;-66
2024/02/16 07:09:04;;;;;;;11.60;4.85;;;;;;;;;;5025105;28;20045;-66
2024/02/16 07:11:31;;;;;;;7.55;4.40;;;;;;;;;;5020869;28;20561;-66
2024/02/16 07:13:59;;;;;;;10.93;4.45;;;;;;;;;;5017583;28;20408;-66
2024/02/16 07:16:25;;;;;;;7.82;4.35;;;;;;;;;;5017718;28;20749;-66
2024/02/16 07:18:51;;;;;;;7.63;4.00;;;;;;;;;;5019871;28;20046;-66
2024/02/16 07:21:20;;;;;;;8.95;4.47;;;;;;;;;;5024483;28;20107;-66
2024/02/16 07:23:47;;;;;;;8.50;4.25;;;;;;;;;;5022025;28;20045;-68
2024/02/16 07:26:14;;;;;;;12.15;4.50;;;;;;;;;;5025927;28;20497;-67
2024/02/16 07:28:40;;;;;;;13.68;4.85;;;;;;;;;;5021987;28;20141;-67
2024/02/16 07:31:06;;;;;;;9.00;4.75;;;;;;;;;;5023659;28;20053;-67
2024/02/16 07:33:32;;;;;;;9.05;4.43;;;;;;;;;;5025977;28;20059;-67
2024/02/16 07:35:59;;;;;;;9.93;4.72;;;;;;;;;;5020125;28;20044;-66
2024/02/16 07:38:25;;;;;;;9.82;4.55;;;;;;;;;;5024609;28;20132;-66
2024/02/16 07:40:51;;;;;;;10.15;4.80;;;;;;;;;;5023082;28;20441;-67
2024/02/16 07:43:18;;;;;;;7.60;4.25;;;;;;;;;;5025669;28;20057;-66
2024/02/16 07:45:45;;;;;;;13.82;4.78;;;;;;;;;;5021031;28;20103;-67
2024/02/16 07:48:11;;;;;;;9.25;4.70;;;;;;;;;;5017919;28;20513;-67
2024/02/16 07:50:37;;;;;;;12.15;5.50;;;;;;;;;;5022454;28;20042;-67
2024/02/16 07:53:03;;;;;;;8.45;5.28;;;;;;;;;;5020256;28;20037;-67
2024/02/16 07:55:29;;;;;;;8.95;4.28;;;;;;;;;;5037822;28;20054;-67
2024/02/16 07:57:55;;;;;;;9.52;4.53;;;;;;;;;;5014182;28;20065;-67
2024/02/16 08:00:22;;;;;;;7.15;4.65;;;;;;;;;;5023949;28;20049;-67
2024/02/16 08:02:49;;;;;;;7.45;4.68;;;;;;;;;;5014730;28;20128;-67
2024/02/16 08:05:15;;;;;;;12.15;4.82;;;;;;;;;;5019768;28;20434;-67
2024/02/16 08:07:42;;;;;;;12.43;5.47;;;;;;;;;;5022656;28;20400;-67
2024/02/16 08:10:08;;;;;;;8.88;4.60;;;;;;;;;;5020841;28;20552;-67
2024/02/16 08:12:35;;;;;;;10.00;4.97;;;;;;;;;;5029828;28;20037;-66
2024/02/16 08:15:06;;;;;;;10.82;5.15;;;;;;;;;;5024714;28;20129;-67
2024/02/16 08:17:34;;;;;;;10.60;5.40;;;;;;;;;;5020603;28;20114;-67
2024/02/16 08:20:00;;;;;;;9.93;5.18;;;;;;;;;;5028951;28;20037;-67
2024/02/16 08:22:26;;;;;;;8.35;5.10;;;;;;;;;;5027779;28;20154;-67
2024/02/16 08:24:53;;;;;;;9.23;5.82;;;;;;;;;;5025523;28;20053;-67
2024/02/16 08:27:19;;;;;;;11.45;5.93;;;;;;;;;;5025027;28;20205;-67
2024/02/16 08:29:45;;;;;;;9.10;5.32;;;;;;;;;;5024512;28;20060;-67
2024/02/16 08:32:11;;;;;;;9.43;4.80;;;;;;;;;;5027102;28;20383;-67
2024/02/16 08:34:38;;;;;;;11.85;6.10;;;;;;;;;;5028228;28;20422;-67
2024/02/16 08:37:05;;;;;;;12.38;5.63;;;;;;;;;;5028495;28;20076;-67
2024/02/16 08:39:31;;;;;;;8.63;4.60;;;;;;;;;;5024308;28;20075;-67
2024/02/16 08:41:58;;;;;;;11.52;5.15;;;;;;;;;;5026532;28;20045;-78
2024/02/16 08:44:24;;;;;;;8.13;4.78;;;;;;;;;;5024843;28;20183;-67
2024/02/16 08:46:51;;;;;;;9.27;5.05;;;;;;;;;;5026617;28;20128;-67
2024/02/16 08:49:17;;;;;;;9.15;5.35;;;;;;;;;;5022662;28;20038;-67
2024/02/16 08:51:43;;;;;;;12.68;4.97;;;;;;;;;;5026164;28;20139;-67
2024/02/16 08:54:10;;;;;;;10.93;4.97;;;;;;;;;;5022595;28;20034;-67
2024/02/16 08:56:39;;;;;;;9.35;5.40;;;;;;;;;;5026051;28;20092;-67
2024/02/16 08:59:05;;;;;;;9.40;5.75;;;;;;;;;;5027747;28;20434;-67
2024/02/16 09:01:35;;;;;;;9.50;5.35;;;;;;;;;;5025306;28;20113;-67
2024/02/16 09:04:02;;;;;;;10.02;5.53;;;;;;;;;;5028708;28;20095;-67
2024/02/16 09:06:28;;;;;;;13.10;5.82;;;;;;;;;;5029274;28;20068;-67
2024/02/16 09:08:55;;;;;;;8.82;5.47;;;;;;;;;;5027091;28;20048;-67
2024/02/16 09:11:21;;;;;;;12.48;5.93;;;;;;;;;;5028584;28;20064;-67
2024/02/16 09:13:47;;;;;;;10.25;5.70;;;;;;;;;;5028404;28;20069;-67
2024/02/16 09:16:14;;;;;;;23.55;7.05;;;;;;;;;;5027217;28;20195;-67
2024/02/16 09:18:40;;;;;;;13.55;6.57;;;;;;;;;;5026008;28;20033;-67
2024/02/16 09:21:07;;;;;;;10.88;6.35;;;;;;;;;;5026539;28;20045;-67
2024/02/16 09:23:34;;;;;;;10.13;6.38;;;;;;;;;;5023367;28;20053;-67
2024/02/16 09:26:00;;;;;;;8.63;5.78;;;;;;;;;;5024890;28;20464;-67
2024/02/16 09:28:27;;;;;;;10.85;5.50;;;;;;;;;;5028065;28;20068;-67
2024/02/16 09:30:55;;;;;;;10.65;6.03;;;;;;;;;;5025989;28;20486;-67
2024/02/16 09:33:21;;;;;;;13.30;6.88;;;;;;;;;;5024618;28;20116;-67
2024/02/16 09:35:48;;;;;;;10.77;5.88;;;;;;;;;;5026948;28;20077;-67
2024/02/16 09:38:14;;;;;;;13.32;5.93;;;;;;;;;;5023729;28;20092;-67
2024/02/16 09:40:40;;;;;;;9.25;5.72;;;;;;;;;;5028248;28;20118;-67
2024/02/16 09:43:07;;;;;;;10.93;6.05;;;;;;;;;;5026785;28;20043;-67
2024/02/16 09:45:33;;;;;;;12.18;6.15;;;;;;;;;;5026837;28;20421;-71
2024/02/16 09:47:59;;;;;;;12.85;6.43;;;;;;;;;;5027872;28;20485;-68
2024/02/16 09:50:26;;;;;;;13.93;6.78;;;;;;;;;;5026490;28;20060;-68
2024/02/16 09:52:53;;;;;;;11.10;6.47;;;;;;;;;;5026723;28;20045;-68
2024/02/16 09:55:19;;;;;;;11.38;6.63;;;;;;;;;;5020815;28;20169;-67
2024/02/16 09:57:45;;;;;;;12.88;6.50;;;;;;;;;;5023476;28;20125;-67
2024/02/16 10:00:13;;;;;;;11.98;6.78;;;;;;;;;;5026118;28;20042;-68
2024/02/16 10:02:41;;;;;;;12.73;6.20;;;;;;;;;;5026254;28;20115;-68
2024/02/16 10:05:15;;;;;;;12.68;6.35;;;;;;;;;;5018867;28;20757;-67
2024/02/16 10:07:41;;;;;;;8.40;6.18;;;;;;;;;;5020353;28;20112;-67
2024/02/16 10:10:20;;;;;;;12.23;7.65;;;;;;;;;;5025167;28;20037;-67
2024/02/16 10:12:46;;;;;;;14.07;6.70;;;;;;;;;;5025289;28;20076;-67
2024/02/16 10:15:19;;;;;;;10.25;6.43;;;;;;;;;;5027192;28;20128;-67
2024/02/16 10:17:45;;;;;;;13.93;7.47;;;;;;;;;;5026606;28;20037;-67
2024/02/16 10:20:18;;;;;;;15.45;6.78;;;;;;;;;;5027975;28;20068;-68
2024/02/16 10:22:44;;;;;;;13.50;7.30;;;;;;;;;;5025602;28;20436;-68
2024/02/16 10:25:12;;;;;;;14.32;7.65;;;;;;;;;;5025733;28;20041;-67
2024/02/16 10:27:40;;;;;;;19.15;8.35;;;;;;;;;;5026779;28;20057;-67
2024/02/16 10:30:12;;;;;;;23.90;11.43;;;;;;;;;;5027191;28;20388;-67
2024/02/16 10:32:39;;;;;;;30.92;12.68;;;;;;;;;;5046917;28;20108;-67
2024/02/16 10:35:07;;;;;;;27.30;14.30;;;;;;;;;;5025961;28;20049;-67
2024/02/16 10:37:33;;;;;;;36.85;14.32;;;;;;;;;;5029450;28;20120;-67
2024/02/16 10:40:00;;;;;;;35.85;14.90;;;;;;;;;;5028393;28;20045;-67
2024/02/16 10:42:27;;;;;;;37.20;15.02;;;;;;;;;;5024728;28;20598;-67
2024/02/16 10:44:55;;;;;;;33.58;15.20;;;;;;;;;;5037482;28;20507;-67
2024/02/16 10:47:21;;;;;;;40.05;16.55;;;;;;;;;;5017593;28;20048;-67
2024/02/16 10:49:47;;;;;;;40.70;15.55;;;;;;;;;;5035878;28;20131;-67
2024/02/16 10:52:15;;;;;;;40.60;16.38;;;;;;;;;;5021115;28;20164;-67
2024/02/16 10:54:42;;;;;;;41.45;15.90;;;;;;;;;;5016437;28;20429;-67
2024/02/16 10:57:09;;;;;;;39.92;17.05;;;;;;;;;;5019113;28;20060;-67
2024/02/16 10:59:45;;;;;;;39.70;16.40;;;;;;;;;;5018740;28;20132;-67
2024/02/16 11:02:12;;;;;;;43.08;14.90;;;;;;;;;;5036657;28;20461;-67
2024/02/16 11:04:39;;;;;;;39.65;15.15;;;;;;;;;;5035985;28;20119;-67
2024/02/16 11:07:12;;;;;;;42.35;15.00;;;;;;;;;;5016269;28;20169;-67
2024/02/16 11:09:39;;;;;;;28.60;13.10;;;;;;;;;;5018283;28;20063;-67
2024/02/16 11:12:08;;;;;;;32.67;11.95;;;;;;;;;;5034352;28;20048;-67
2024/02/16 11:14:36;;;;;;;28.98;12.15;;;;;;;;;;5018292;28;20053;-67
2024/02/16 11:17:03;;;;;;;27.30;11.57;;;;;;;;;;5003558;28;20445;-67
2024/02/16 11:19:30;;;;;;;22.02;11.23;;;;;;;;;;5021904;28;20485;-67
2024/02/16 11:21:57;;;;;;;26.25;10.65;;;;;;;;;;5020881;28;20120;-67
2024/02/16 11:24:33;;;;;;;27.70;10.65;;;;;;;;;;5022163;28;20171;-67
2024/02/16 11:27:02;;;;;;;26.40;10.82;;;;;;;;;;5019987;28;20061;-67
2024/02/16 11:29:30;;;;;;;22.73;10.48;;;;;;;;;;5012102;28;20049;-67
2024/02/16 11:31:57;;;;;;;32.05;10.98;;;;;;;;;;5015670;28;20045;-67
2024/02/16 11:34:25;;;;;;;26.13;11.13;;;;;;;;;;5014704;28;20473;-67
2024/02/16 11:36:54;;;;;;;24.92;10.40;;;;;;;;;;5016107;28;20057;-67
2024/02/16 11:39:20;;;;;;;20.55;9.13;;;;;;;;;;5017662;28;20350;-67
2024/02/16 11:41:46;;;;;;;20.08;9.10;;;;;;;;;;5015861;28;20049;-67
2024/02/16 11:44:20;;;;;;;27.35;11.02;;;;;;;;;;5018492;28;20440;-67
2024/02/16 11:46:46;;;;;;;22.52;10.52;;;;;;;;;;5017500;28;20446;-67
2024/02/16 11:49:12;;;;;;;22.05;10.43;;;;;;;;;;5019518;28;20065;-67
2024/02/16 11:51:39;;;;;;;21.58;9.63;;;;;;;;;;5017891;28;20049;-67
2024/02/16 11:54:06;;;;;;;21.13;9.55;;;;;;;;;;5023899;28;20378;-67
2024/02/16 11:56:32;;;;;;;24.30;10.32;;;;;;;;;;5019830;28;20041;-67
2024/02/16 11:58:59;;;;;;;20.27;9.18;;;;;;;;;;5015169;28;20087;-67
2024/02/16 12:01:25;;;;;;;19.55;8.85;;;;;;;;;;5019152;28;20158;-67
2024/02/16 12:03:51;;;;;;;23.08;9.25;;;;;;;;;;5040102;28;20053;-67
2024/02/16 12:06:21;;;;;;;18.50;7.63;;;;;;;;;;5021143;28;20079;-67
2024/02/16 12:08:48;;;;;;;13.07;6.93;;;;;;;;;;5017375;28;20033;-67
2024/02/16 12:11:14;;;;;;;15.95;7.45;;;;;;;;;;5025246;28;20125;-67
2024/02/16 12:13:40;;;;;;;15.30;7.10;;;;;;;;;;5026341;28;20042;-67
2024/02/16 12:16:06;;;;;;;15.35;6.40;;;;;;;;;;5028313;28;20064;-67
2024/02/16 12:18:33;;;;;;;13.63;5.78;;;;;;;;;;5028056;28;20034;-65
2024/02/16 12:21:00;;;;;;;10.77;5.32;;;;;;;;;;5025229;28;20121;-67
2024/02/16 12:23:26;;;;;;;11.95;4.65;;;;;;;;;;5026634;28;20141;-67
2024/02/16 12:25:53;;;;;;;8.57;4.40;;;;;;;;;;5024826;28;20059;-67
2024/02/16 12:28:20;;;;;;;9.50;4.30;;;;;;;;;;5010216;28;20124;-67
2024/02/16 12:30:48;;;;;;;9.95;4.95;;;;;;;;;;5024936;28;20078;-67
2024/02/16 12:33:15;;;;;;;8.82;3.80;;;;;;;;;;5024760;28;20144;-67
2024/02/16 12:35:41;;;;;;;6.53;3.10;;;;;;;;;;5030492;28;20500;-67
2024/02/16 12:38:07;;;;;;;7.75;3.45;;;;;;;;;;5026715;28;20047;-67
2024/02/16 12:40:34;;;;;;;7.55;3.20;;;;;;;;;;5024101;28;20057;-66
2024/02/16 12:43:00;;;;;;;8.52;3.60;;;;;;;;;;5020671;28;20143;-66
2024/02/16 12:45:26;;;;;;;8.85;3.40;;;;;;;;;;5027272;28;20203;-66
2024/02/16 12:47:53;;;;;;;9.18;3.55;;;;;;;;;;5035271;28;20052;-67
2024/02/16 12:50:19;;;;;;;8.25;3.20;;;;;;;;;;5041592;28;20124;-67
2024/02/16 12:52:45;;;;;;;7.68;3.97;;;;;;;;;;5034416;28;20043;-67
2024/02/16 12:55:12;;;;;;;11.52;4.18;;;;;;;;;;5038054;28;20048;-67
2024/02/16 12:57:38;;;;;;;10.20;4.88;;;;;;;;;;5033686;28;20393;-67
2024/02/16 13:00:05;;;;;;;10.90;4.10;;;;;;;;;;5036530;28;20044;-67
2024/02/16 13:02:31;;;;;;;13.95;3.83;;;;;;;;;;5035930;28;20046;-66
2024/02/16 13:04:58;;;;;;;8.18;4.03;;;;;;;;;;5041354;28;20083;-67
2024/02/16 13:07:25;;;;;;;8.63;3.80;;;;;;;;;;5042737;28;20041;-67
2024/02/16 13:09:52;;;;;;;7.88;4.13;;;;;;;;;;5042539;28;20399;-67
2024/02/16 13:12:20;;;;;;;10.55;3.95;;;;;;;;;;5040684;28;20083;-67
2024/02/16 13:14:46;;;;;;;9.38;3.83;;;;;;;;;;5041529;28;20045;-67
2024/02/16 13:17:12;;;;;;;12.15;4.28;;;;;;;;;;5039310;28;20049;-67
2024/02/16 13:19:39;;;;;;;9.23;4.32;;;;;;;;;;5043461;28;20061;-67
2024/02/16 13:22:05;;;;;;;9.65;4.32;;;;;;;;;;5038728;28;20129;-67
2024/02/16 13:24:31;;;;;;;9.15;4.35;;;;;;;;;;5043033;28;20059;-67
2024/02/16 13:26:57;;;;;;;10.38;4.65;;;;;;;;;;5040950;28;20123;-67
2024/02/16 13:29:24;;;;;;;11.98;4.97;;;;;;;;;;5041033;28;20041;-67
2024/02/16 13:31:50;;;;;;;13.65;4.82;;;;;;;;;;5039936;28;20064;-67
2024/02/16 13:34:16;;;;;;;11.60;4.85;;;;;;;;;;5022517;28;20041;-67
2024/02/16 13:36:43;;;;;;;12.52;4.95;;;;;;;;;;5041007;28;20478;-67
2024/02/16 13:39:09;;;;;;;13.85;4.65;;;;;;;;;;5041728;28;20143;-66
2024/02/16 13:41:35;;;;;;;13.25;4.93;;;;;;;;;;5042468;28;20081;-67
2024/02/16 13:44:02;;;;;;;12.52;4.80;;;;;;;;;;5041161;28;20180;-66
2024/02/16 13:46:28;;;;;;;14.05;5.25;;;;;;;;;;5026436;28;20393;-66
2024/02/16 13:48:56;;;;;;;16.42;6.13;;;;;;;;;;5035474;28;20064;-67
2024/02/16 13:51:22;;;;;;;11.48;4.80;;;;;;;;;;5032871;28;20049;-67
2024/02/16 13:53:48;;;;;;;11.73;4.57;;;;;;;;;;5039344;28;20098;-67
2024/02/16 13:56:15;;;;;;;13.88;5.28;;;;;;;;;;5017056;28;20041;-67
2024/02/16 13:58:41;;;;;;;14.32;4.97;;;;;;;;;;5031743;28;20110;-68
2024/02/16 14:01:07;;;;;;;16.00;6.13;;;;;;;;;;5024241;28;20049;-68
2024/02/16 14:03:36;;;;;;;12.60;5.07;;;;;;;;;;5027384;28;20041;-67
2024/02/16 14:06:02;;;;;;;15.05;4.97;;;;;;;;;;5025491;28;20037;-67
2024/02/16 14:08:30;;;;;;;16.02;6.22;;;;;;;;;;5027079;28;20042;-68
2024/02/16 14:10:56;;;;;;;14.77;5.30;;;;;;;;;;5023741;28;20056;-68
2024/02/16 14:13:24;;;;;;;20.83;5.82;;;;;;;;;;5018279;28;20034;-68
2024/02/16 14:15:50;;;;;;;17.75;6.57;;;;;;;;;;5016097;28;20069;-68
2024/02/16 14:18:17;;;;;;;12.23;5.90;;;;;;;;;;5014263;28;20135;-67
2024/02/16 14:20:43;;;;;;;18.10;7.93;;;;;;;;;;5014508;28;20178;-68
2024/02/16 14:23:10;;;;;;;16.20;6.50;;;;;;;;;;5013811;28;20056;-68
2024/02/16 14:25:37;;;;;;;17.60;6.20;;;;;;;;;;5018044;28;20120;-68
2024/02/16 14:28:04;;;;;;;19.08;6.32;;;;;;;;;;5014149;28;20207;-68
2024/02/16 14:30:32;;;;;;;23.30;7.63;;;;;;;;;;5015451;28;20077;-68
2024/02/16 14:32:58;;;;;;;20.85;6.45;;;;;;;;;;5032978;28;20058;-68